Time;durP1;ratioP1;P1;durP2;ratioP2;P2;SDS_P1;SDS_P2;PMS_P1;PMS_P2;Temp;Humidity;BMP_temperature;BMP_pressure;BME280_temperature;BME280_humidity;BME280_pressure;Samples;Min_cycle;Max_cycle;Signal;HPM_P1;HPM_P2
2023/10/17 00:00:25;;;;;;;6.18;5.57;;;;;;;;;;4994090;28;20213;-92
2023/10/17 00:03:02;;;;;;;10.25;4.75;;;6.10;99.90;;;;;;4992476;28;20248;-92
2023/10/17 00:05:41;;;;;;;6.93;6.17;;;6.30;99.90;;;;;;4986005;28;20216;-94
2023/10/17 00:08:10;;;;;;;6.70;5.10;;;;;;;;;;4983749;28;20477;-94
2023/10/17 00:10:45;;;;;;;8.20;6.72;;;;;;;;;;4982889;28;20300;-93
2023/10/17 00:13:23;;;;;;;7.95;5.32;;;;;;;;;;4983358;28;20216;-94
2023/10/17 00:15:52;;;;;;;7.20;5.80;;;6.20;99.90;;;;;;4985132;28;20196;-91
2023/10/17 00:18:25;;;;;;;10.43;6.25;;;6.40;99.90;;;;;;4985975;28;20201;-92
2023/10/17 00:20:53;;;;;;;7.40;6.68;;;;;;;;;;4986485;28;20220;-91
2023/10/17 00:23:22;;;;;;;9.63;5.95;;;;;;;;;;5001467;28;20241;-90
2023/10/17 00:25:52;;;;;;;10.45;6.85;;;6.70;99.90;;;;;;5000864;28;20185;-91
2023/10/17 00:28:22;;;;;;;9.98;6.78;;;;;;;;;;5001327;28;20213;-90
2023/10/17 00:30:49;;;;;;;7.45;6.63;;;6.40;99.90;;;;;;4986450;28;20225;-92
2023/10/17 00:33:23;;;;;;;10.73;7.18;;;6.50;99.90;;;;;;4982942;28;20275;-92
2023/10/17 00:35:55;;;;;;;9.18;6.10;;;6.70;99.90;;;;;;4981911;28;20217;-91
2023/10/17 00:38:35;;;;;;;11.85;7.00;;;6.80;99.90;;;;;;4983583;28;20269;-92
2023/10/17 00:41:34;;;;;;;10.60;6.82;;;6.70;99.90;;;;;;4982788;28;20260;-92
2023/10/17 00:44:06;;;;;;;9.13;7.00;;;;;;;;;;4986742;28;20212;-90
2023/10/17 00:46:42;;;;;;;10.00;6.78;;;;;;;;;;4991620;28;20190;-93
2023/10/17 00:49:15;;;;;;;10.02;7.28;;;7.00;99.90;;;;;;4989198;28;20292;-93
2023/10/17 00:51:55;;;;;;;9.02;7.32;;;6.80;1.00;;;;;;4989520;28;20221;-93
2023/10/17 00:54:29;;;;;;;10.88;9.15;;;6.80;1.00;;;;;;4995003;28;20205;-92
2023/10/17 00:57:00;;;;;;;11.57;9.25;;;6.70;1.00;;;;;;4998547;28;20221;-91
2023/10/17 00:59:29;;;;;;;11.75;9.13;;;;;;;;;;4990034;28;20198;-92
2023/10/17 01:02:07;;;;;;;16.73;9.00;;;6.80;1.00;;;;;;4986139;28;20229;-92
2023/10/17 01:04:44;;;;;;;9.85;8.40;;;6.70;1.00;;;;;;4981613;28;20205;-91
2023/10/17 01:07:29;;;;;;;9.25;8.35;;;6.30;1.00;;;;;;4981025;28;20268;-92
2023/10/17 01:10:05;;;;;;;8.88;7.60;;;;;;;;;;4980059;28;20213;-93
2023/10/17 01:12:49;;;;;;;8.88;7.50;;;6.80;1.00;;;;;;4980423;28;20229;-92
2023/10/17 01:15:29;;;;;;;8.43;7.63;;;6.70;1.00;;;;;;4979590;28;20264;-92
2023/10/17 01:18:04;;;;;;;8.15;7.25;;;;;;;;;;4985165;28;20185;-92
2023/10/17 01:20:46;;;;;;;10.77;8.23;;;6.80;1.00;;;;;;4984772;28;20659;-90
2023/10/17 01:39:59;;;;;;;8.45;7.07;;;7.10;1.00;;;;;;4897928;29;20723;-92
2023/10/17 01:45:23;;;;;;;9.52;7.35;;;6.90;1.00;;;;;;4845602;29;20725;-92
2023/10/17 01:48:21;;;;;;;7.72;6.93;;;6.80;37.40;;;;;;4910304;29;20267;-92
2023/10/17 01:50:55;;;;;;;8.48;7.57;;;6.90;35.80;;;;;;4964171;28;20214;-92
2023/10/17 01:53:32;;;;;;;8.27;7.45;;;;;;;;;;4982227;28;20204;-93
2023/10/17 01:56:21;;;;;;;10.10;8.63;;;6.80;99.90;;;;;;4985370;28;20216;-91
2023/10/17 01:59:26;;;;;;;8.48;6.72;;;6.90;99.90;;;;;;4993077;28;20836;-94
2023/10/17 02:02:06;;;;;;;8.25;7.15;;;7.00;96.70;;;;;;4967592;28;20236;-93
2023/10/17 02:04:44;;;;;;;8.70;7.90;;;7.00;99.90;;;;;;4981015;28;20240;-93
2023/10/17 02:11:23;;;;;;;7.50;6.80;;;6.80;1.00;;;;;;4937966;28;20248;-91
2023/10/17 02:14:37;;;;;;;;;;;;;;;;;;;;;
2023/10/17 02:20:32;;;;;;;10.85;8.05;;;6.80;99.90;;;;;;4915091;29;20200;-92
2023/10/17 02:23:19;;;;;;;8.23;7.43;;;6.70;20.60;;;;;;4920364;29;20208;-92
2023/10/17 03:06:56;;;;;;;9.00;7.10;;;7.20;99.90;;;;;;4960809;28;20222;-90
2023/10/17 03:15:46;;;;;;;8.30;7.05;;;;;;;;;;4982504;28;20457;-90
2023/10/17 03:54:28;;;;;;;11.37;6.20;;;7.40;1.00;;;;;;4963063;29;20195;-91
2023/10/17 03:57:15;;;;;;;10.27;6.93;;;;;;;;;;4962283;28;20489;-91
2023/10/17 04:15:24;;;;;;;8.03;6.30;;;7.50;25.40;;;;;;3104433;26;20217;-91
2023/10/17 04:18:04;;;;;;;11.40;7.33;;;7.40;99.90;;;;;;4970529;28;21020;-93
2023/10/17 04:20:47;;;;;;;7.47;5.60;;;7.40;99.90;;;;;;5001079;28;20432;-91
2023/10/17 04:29:49;;;;;;;9.23;6.70;;;6.80;99.90;;;;;;5046358;23;20498;-88
2023/10/17 04:36:51;;;;;;;;;;;;;;;;;;;;;
2023/10/17 04:49:53;;;;;;;11.77;8.87;;;7.70;1.00;;;;;;4910986;29;20506;-89
2023/10/17 07:06:16;;;;;;;6.67;5.40;;;9.00;1.00;;;;;;3094237;23;20460;-91
2023/10/17 07:09:29;;;;;;;;;;;;;;;;;;;;;
2023/10/17 07:24:48;;;;;;;5.70;5.07;;;8.80;99.90;;;;;;4983866;29;20422;-88
2023/10/17 08:06:08;;;;;;;12.27;8.60;;;9.20;99.90;;;;;;4815507;26;20990;-90
2023/10/17 08:08:46;;;;;;;10.87;9.70;;;9.40;99.90;;;;;;5005349;28;20464;-89
2023/10/17 08:11:36;;;;;;;7.97;6.90;;;9.50;99.90;;;;;;5013980;28;20527;-87
2023/10/17 08:14:23;;;;;;;6.60;5.83;;;9.80;99.90;;;;;;5001276;28;20436;-89
2023/10/17 08:27:47;;;;;;;7.30;4.87;;;9.70;1.00;;;;;;4934811;29;20440;-90
2023/10/17 08:30:23;;;;;;;3.77;3.30;;;9.70;99.90;;;;;;4919013;29;20487;-90
2023/10/17 08:45:41;;;;;;;7.13;4.80;;;10.20;1.00;;;;;;4940768;28;20450;-87
2023/10/17 08:49:18;;;;;;;;;;;;;;;;;;;;;
2023/10/17 08:58:47;;;;;;;4.93;4.20;;;10.30;1.00;;;;;;4997570;28;20432;-89
2023/10/17 09:06:07;;;;;;;6.30;5.23;;;10.40;1.00;;;;;;4837062;29;20453;-88
2023/10/17 09:19:09;;;;;;;7.90;5.17;;;10.90;1.00;;;;;;4826844;29;20431;-88
2023/10/17 09:22:43;;;;;;;;;;;;;;;;;;;;;
2023/10/17 10:01:28;;;;;;;4.23;3.27;;;11.40;1.00;;;;;;3688467;23;20895;-89
2023/10/17 10:04:52;;;;;;;;;;;;;;;;;;;;;
2023/10/17 10:07:54;;;;;;;3.20;2.07;;;11.60;1.00;;;;;;4943678;29;20463;-89
2023/10/17 10:16:59;;;;;;;4.00;1.53;;;11.60;1.00;;;;;;4922649;29;20472;-89
2023/10/17 10:20:09;;;;;;;1.43;1.33;;;11.60;1.00;;;;;;4924137;29;20542;-88
2023/10/17 10:23:16;;;;;;;;;;;;;;;;;;;;;
2023/10/17 10:26:22;;;;;;;2.37;1.43;;;11.50;1.00;;;;;;4947748;29;20479;-89
2023/10/17 10:29:35;;;;;;;2.27;1.53;;;11.70;1.00;;;;;;4881495;29;20456;-88
2023/10/17 10:32:42;;;;;;;3.13;2.00;;;11.70;1.00;;;;;;4885751;29;20965;-88
2023/10/17 10:35:15;;;;;;;4.43;2.03;;;;;;;;;;4931459;29;20569;-89
2023/10/17 10:38:31;;;;;;;3.47;2.00;;;11.30;1.00;;;;;;4940474;29;20451;-88
2023/10/17 10:47:31;;;;;;;;;;;;;;;;;;;;;
2023/10/17 10:50:11;;;;;;;5.33;2.93;;;10.90;1.00;;;;;;4953609;29;20493;-89
2023/10/17 10:53:01;;;;;;;5.63;2.07;;;10.90;1.00;;;;;;4956542;29;20442;-88
2023/10/17 10:55:41;;;;;;;1.73;1.50;;;10.90;1.00;;;;;;4951991;29;20510;-88
2023/10/17 10:58:15;;;;;;;2.70;2.10;;;;;;;;;;4951683;29;20534;-88
2023/10/17 11:01:09;;;;;;;2.23;1.73;;;10.80;99.90;;;;;;4943243;29;20457;-89
2023/10/17 11:03:46;;;;;;;3.23;1.90;;;10.90;99.90;;;;;;4958395;28;20427;-87
2023/10/17 11:06:40;;;;;;;;;;;;;;;;;;;;;
2023/10/17 11:09:52;;;;;;;3.17;2.23;;;10.90;99.90;;;;;;4950955;28;20463;-89
2023/10/17 11:12:32;;;;;;;4.27;2.00;;;10.90;99.90;;;;;;4946850;29;20439;-90
2023/10/17 11:18:09;;;;;;;2.40;1.50;;;10.80;99.90;;;;;;4940338;29;20461;-90
2023/10/17 11:20:40;;;;;;;2.10;1.60;;;;;;;;;;4943082;29;20854;-90
2023/10/17 11:23:26;;;;;;;3.77;1.33;;;11.50;99.90;;;;;;4943601;29;20796;-90
2023/10/17 11:25:59;;;;;;;4.53;1.50;;;;;;;;;;4953564;29;20488;-89
2023/10/17 11:28:42;;;;;;;1.77;1.27;;;10.90;99.90;;;;;;4961625;28;20426;-89
2023/10/17 11:31:24;;;;;;;1.20;1.10;;;;;;;;;;4959599;29;20517;-90
2023/10/17 11:33:59;;;;;;;2.70;1.40;;;10.90;99.90;;;;;;4961439;29;20479;-90
2023/10/17 11:37:02;;;;;;;1.90;1.70;;;10.90;99.90;;;;;;4952808;29;21019;-89
2023/10/17 11:40:26;;;;;;;3.77;1.90;;;11.40;99.90;;;;;;4946547;29;20463;-89
2023/10/17 11:42:59;;;;;;;2.00;1.47;;;11.20;99.90;;;;;;4946200;29;20933;-90
2023/10/17 11:45:37;;;;;;;2.00;1.20;;;11.10;99.90;;;;;;4953628;29;20463;-91
2023/10/17 11:48:26;;;;;;;2.40;1.57;;;11.00;1.00;;;;;;4961578;28;20502;-89
2023/10/17 11:51:19;;;;;;;1.77;1.67;;;11.00;99.90;;;;;;4961005;28;20489;-88
2023/10/17 11:54:07;;;;;;;3.77;1.87;;;11.00;99.90;;;;;;4946170;29;20534;-89
2023/10/17 11:56:40;;;;;;;8.30;3.33;;;11.00;99.90;;;;;;4942493;29;20491;-89
2023/10/17 11:59:10;;;;;;;1.70;1.60;;;10.90;99.90;;;;;;4943803;29;20447;-88
2023/10/17 12:01:45;;;;;;;5.37;1.97;;;;;;;;;;4943423;29;20444;-88
2023/10/17 12:04:16;;;;;;;2.37;1.37;;;11.00;1.00;;;;;;4941741;29;20585;-88
2023/10/17 12:06:44;;;;;;;2.10;1.33;;;;;;;;;;4941423;29;20470;-89
2023/10/17 12:09:22;;;;;;;1.30;1.20;;;;;;;;;;4941531;29;20462;-89
2023/10/17 12:11:58;;;;;;;1.53;1.43;;;11.20;99.90;;;;;;4941473;29;20443;-89
2023/10/17 12:14:28;;;;;;;2.03;1.23;;;11.20;99.90;;;;;;4942184;29;20534;-88
2023/10/17 12:17:00;;;;;;;1.60;1.50;;;11.20;99.90;;;;;;4942141;29;20443;-89
2023/10/17 12:19:29;;;;;;;2.03;1.20;;;11.10;99.90;;;;;;4945227;29;20482;-89
2023/10/17 12:22:00;;;;;;;2.67;2.37;;;;;;;;;;4945550;29;20451;-89
2023/10/17 12:24:34;;;;;;;2.30;1.60;;;11.40;99.90;;;;;;4946287;29;20818;-89
2023/10/17 12:30:35;;;;;;;3.53;1.30;;;11.30;99.90;;;;;;4945322;29;20463;-89
2023/10/17 12:33:33;;;;;;;0.97;0.87;;;11.10;99.90;;;;;;4946406;29;20455;-89
2023/10/17 12:36:06;;;;;;;2.27;1.10;;;10.20;99.90;;;;;;5019584;23;20604;-89
2023/10/17 12:38:40;;;;;;;10.10;6.20;;;11.30;99.90;;;;;;4964673;29;20446;-89
2023/10/17 12:41:22;;;;;;;4.27;1.80;;;11.30;1.00;;;;;;4974749;28;20552;-90
2023/10/17 12:43:59;;;;;;;1.20;1.10;;;;;;;;;;4964815;28;20422;-88
2023/10/17 15:07:16;;;;;;;2.03;1.40;;;11.30;99.90;;;;;;1335779;23;20744;-90
2023/10/17 15:09:47;;;;;;;2.67;1.87;;;;;;;;;;4975531;29;20460;-90
2023/10/17 15:12:15;;;;;;;2.20;1.70;;;11.60;1.00;;;;;;4982642;28;20477;-90
2023/10/17 15:14:44;;;;;;;2.60;1.87;;;;;;;;;;4982649;28;20450;-88
2023/10/17 15:17:15;;;;;;;2.40;1.80;;;;;;;;;;4973797;29;20456;-90
2023/10/17 15:19:44;;;;;;;1.77;1.33;;;11.20;99.90;;;;;;4975698;29;20442;-90
2023/10/17 15:22:12;;;;;;;2.50;2.30;;;11.10;99.90;;;;;;4968865;29;20481;-90
2023/10/17 15:24:43;;;;;;;1.63;1.53;;;;;;;;;;4966402;28;20460;-89
2023/10/17 15:27:10;;;;;;;2.17;1.80;;;;;;;;;;4966629;29;20421;-90
2023/10/17 15:29:39;;;;;;;2.77;2.57;;;;;;;;;;4968297;29;20476;-89
2023/10/17 15:32:13;;;;;;;6.47;2.00;;;10.80;1.00;;;;;;4972507;29;20488;-89
2023/10/17 15:34:45;;;;;;;3.73;1.80;;;10.90;1.00;;;;;;4976018;28;20415;-90
2023/10/17 15:37:19;;;;;;;2.90;1.70;;;10.70;99.90;;;;;;4974693;29;20536;-90
2023/10/17 15:39:55;;;;;;;4.87;2.57;;;10.70;99.90;;;;;;4970940;29;20811;-89
2023/10/17 15:42:23;;;;;;;3.77;2.00;;;;;;;;;;4969365;29;20441;-89
2023/10/17 15:44:50;;;;;;;4.83;1.47;;;;;;;;;;4974519;28;20454;-89
2023/10/17 15:47:20;;;;;;;5.60;2.10;;;;;;;;;;4970412;29;20550;-89
2023/10/17 15:49:54;;;;;;;2.73;1.93;;;10.40;99.90;;;;;;4971116;29;20469;-89
2023/10/17 15:52:29;;;;;;;3.47;1.67;;;10.40;99.90;;;;;;4969497;29;20480;-89
2023/10/17 15:58:46;;;;;;;;;;;;;;;;;;;;;
2023/10/17 16:01:40;;;;;;;2.40;1.80;;;10.30;99.90;;;;;;4973251;29;20420;-89
2023/10/17 16:04:22;;;;;;;2.30;1.77;;;10.30;99.90;;;;;;4973283;29;20442;-89
2023/10/17 16:06:51;;;;;;;1.90;1.47;;;;;;;;;;4970495;28;20564;-90
2023/10/17 16:09:25;;;;;;;1.97;1.77;;;10.40;1.00;;;;;;4980159;28;20430;-89
2023/10/17 16:12:03;;;;;;;4.03;2.73;;;;;;;;;;4973080;29;20528;-89
2023/10/17 16:14:50;;;;;;;8.93;2.20;;;10.10;99.90;;;;;;4968376;29;20470;-90
2023/10/17 16:17:32;;;;;;;4.07;3.20;;;10.20;99.90;;;;;;4967422;29;20833;-89
2023/10/17 16:20:32;;;;;;;5.40;4.37;;;10.20;99.90;;;;;;4966382;29;20442;-90
2023/10/17 16:23:21;;;;;;;8.37;3.17;;;10.20;1.00;;;;;;4922702;29;20819;-90
2023/10/17 16:26:04;;;;;;;8.80;4.70;;;10.50;1.00;;;;;;4966515;28;20484;-90
2023/10/17 16:29:12;;;;;;;4.70;3.67;;;10.20;99.90;;;;;;4966408;29;20434;-89
2023/10/17 16:32:11;;;;;;;5.10;2.50;;;10.10;1.00;;;;;;4967733;29;20481;-90
2023/10/17 16:52:54;;;;;;;8.30;3.20;;;9.20;1.00;;;;;;4906526;23;20517;-88
